createdAt,value
2023-02-11T00:01:01.011Z,1.00
2023-02-11T00:03:29.307Z,1.52
2023-02-11T00:06:02.509Z,1.83
2023-02-11T00:08:30.745Z,1.42
2023-02-11T00:10:59.761Z,2.03
2023-02-11T00:13:27.964Z,2.53
2023-02-11T00:15:56.695Z,1.17
2023-02-11T00:18:25.284Z,2.05
2023-02-11T00:20:53.544Z,1.90
2023-02-11T00:23:23.111Z,2.22
2023-02-11T00:25:51.669Z,0.82
2023-02-11T00:28:20.116Z,1.17
2023-02-11T00:30:55.604Z,1.33
2023-02-11T00:33:23.930Z,1.20
2023-02-11T00:35:52.771Z,1.05
2023-02-11T00:38:22.496Z,0.88
2023-02-11T00:40:50.808Z,1.10
2023-02-11T00:43:19.098Z,1.70
2023-02-11T00:45:47.447Z,0.57
2023-02-11T00:48:15.732Z,0.90
2023-02-11T00:50:44.004Z,0.90
2023-02-11T00:53:12.278Z,0.95
2023-02-11T00:55:41.880Z,0.55
2023-02-11T00:58:10.112Z,1.20
2023-02-11T01:00:38.378Z,0.70
2023-02-11T01:03:06.673Z,1.15
2023-02-11T01:05:35.265Z,2.53
2023-02-11T01:08:03.676Z,1.13
2023-02-11T01:10:31.908Z,0.68
2023-02-11T01:13:01.671Z,1.15
2023-02-11T01:15:30.076Z,1.52
2023-02-11T01:17:58.344Z,1.17
2023-02-11T01:20:28.287Z,1.75
2023-02-11T01:22:56.489Z,1.48
2023-02-11T01:25:24.726Z,0.75
2023-02-11T01:27:52.965Z,0.98
2023-02-11T01:30:22.688Z,0.65
2023-02-11T01:32:50.937Z,1.20
2023-02-11T01:35:19.304Z,1.88
2023-02-11T01:37:47.510Z,1.45
2023-02-11T01:40:18.478Z,0.43
2023-02-11T01:42:49.375Z,0.65
2023-02-11T01:45:37.425Z,1.02
2023-02-11T01:48:07.280Z,1.10
2023-02-11T01:50:35.830Z,0.40
2023-02-11T01:53:18.065Z,0.77
2023-02-11T01:56:03.825Z,1.27
2023-02-11T01:58:34.363Z,2.00
2023-02-11T02:01:03.964Z,1.05
2023-02-11T02:03:35.572Z,1.63
2023-02-11T02:06:08.206Z,1.25
2023-02-11T02:08:38.210Z,1.15
2023-02-11T02:11:06.770Z,1.52
2023-02-11T02:13:36.175Z,1.30
2023-02-11T02:16:07.206Z,0.70
2023-02-11T02:18:41.479Z,1.55
2023-02-11T02:21:24.858Z,1.55
2023-02-11T02:24:07.941Z,0.50
2023-02-11T02:26:54.941Z,1.05
2023-02-11T02:29:50.162Z,0.75
2023-02-11T02:32:24.677Z,0.60
2023-02-11T02:34:55.541Z,0.38
2023-02-11T02:37:26.233Z,0.40
2023-02-11T02:39:54.494Z,0.60
2023-02-11T02:42:23.102Z,1.02
2023-02-11T02:44:51.572Z,0.88
2023-02-11T02:47:19.903Z,1.10
2023-02-11T02:49:49.502Z,0.35
2023-02-11T02:52:20.794Z,0.22
2023-02-11T02:55:06.747Z,0.50
2023-02-11T02:57:38.963Z,1.08
2023-02-11T03:00:14.894Z,0.95
2023-02-11T03:02:47.815Z,0.85
2023-02-11T03:05:19.424Z,0.63
2023-02-11T03:07:50.686Z,0.52
2023-02-11T03:10:21.272Z,0.95
2023-02-11T03:12:49.964Z,0.52
2023-02-11T03:15:19.309Z,1.40
2023-02-11T03:17:49.417Z,0.73
2023-02-11T03:20:20.316Z,0.85
2023-02-11T03:22:50.434Z,0.80
2023-02-11T03:25:18.747Z,1.30
2023-02-11T03:27:52.755Z,0.55
2023-02-11T03:30:23.924Z,0.40
2023-02-11T03:32:53.268Z,0.82
2023-02-11T03:35:25.827Z,0.95
2023-02-11T03:37:55.720Z,0.52
2023-02-11T03:40:25.502Z,0.50
2023-02-11T03:42:56.342Z,0.90
2023-02-11T03:45:25.321Z,0.70
2023-02-11T03:47:55.959Z,0.47
2023-02-11T03:50:26.549Z,0.82
2023-02-11T03:52:55.952Z,0.30
2023-02-11T03:55:25.835Z,0.85
2023-02-11T03:57:54.088Z,0.65
2023-02-11T04:00:22.406Z,0.70
2023-02-11T04:02:50.678Z,0.77
2023-02-11T04:05:18.907Z,0.60
2023-02-11T04:07:48.473Z,0.63
2023-02-11T04:10:16.901Z,0.65
2023-02-11T04:12:45.116Z,0.57
2023-02-11T04:15:13.360Z,0.30
2023-02-11T04:17:41.645Z,0.80
2023-02-11T04:20:10.483Z,0.65
2023-02-11T04:22:38.761Z,0.65
2023-02-11T04:25:09.383Z,1.13
2023-02-11T04:27:37.682Z,0.82
2023-02-11T04:30:06.614Z,0.57
2023-02-11T04:32:34.965Z,0.30
2023-02-11T04:35:03.578Z,0.70
2023-02-11T04:37:31.835Z,0.40
2023-02-11T04:40:00.054Z,0.55
2023-02-11T04:42:29.693Z,0.65
2023-02-11T04:44:57.909Z,0.30
2023-02-11T04:47:26.202Z,0.73
2023-02-11T04:49:54.463Z,0.80
2023-02-11T04:52:22.725Z,0.43
2023-02-11T04:54:50.984Z,0.50
2023-02-11T04:57:19.189Z,0.60
2023-02-11T04:59:49.010Z,0.30
2023-02-11T05:02:17.296Z,0.73
2023-02-11T05:04:45.512Z,0.43
2023-02-11T05:07:13.716Z,0.57
2023-02-11T05:09:42.090Z,0.77
2023-02-11T05:12:10.339Z,0.40
2023-02-11T05:14:38.574Z,0.65
2023-02-11T05:17:08.284Z,0.70
2023-02-11T05:19:36.493Z,0.82
2023-02-11T05:22:04.726Z,0.43
2023-02-11T05:24:33.128Z,0.57
2023-02-11T05:27:01.483Z,0.40
2023-02-11T05:29:30.130Z,0.50
2023-02-11T05:31:58.379Z,0.60
2023-02-11T05:34:28.115Z,0.38
2023-02-11T05:36:56.361Z,0.75
2023-02-11T05:39:24.555Z,0.60
2023-02-11T05:41:52.815Z,0.30
2023-02-11T05:44:21.182Z,0.40
2023-02-11T05:46:50.167Z,0.77
2023-02-11T05:49:18.505Z,0.40
2023-02-11T05:51:48.073Z,0.40
2023-02-11T05:54:16.728Z,0.43
2023-02-11T05:56:46.064Z,0.52
2023-02-11T05:59:14.910Z,1.00
2023-02-11T06:01:43.209Z,0.55
2023-02-11T06:04:11.464Z,0.80
2023-02-11T06:06:39.730Z,1.58
2023-02-11T06:09:09.316Z,0.75
2023-02-11T06:11:37.569Z,0.82
2023-02-11T06:14:05.797Z,0.57
2023-02-11T06:16:34.077Z,0.70
2023-02-11T06:19:02.397Z,0.85
2023-02-11T06:21:42.976Z,0.95
2023-02-11T06:24:13.977Z,0.95
2023-02-11T06:26:42.327Z,1.13
2023-02-11T06:29:10.845Z,0.50
2023-02-11T06:31:39.965Z,1.52
2023-02-11T06:34:08.406Z,0.38
2023-02-11T06:36:36.691Z,0.32
2023-02-11T06:39:05.230Z,0.57
2023-02-11T06:41:34.978Z,0.40
2023-02-11T06:44:03.262Z,0.95
2023-02-11T06:46:31.579Z,0.30
2023-02-11T06:48:59.877Z,0.28
2023-02-11T06:51:28.324Z,0.80
2023-02-11T06:53:56.569Z,1.10
2023-02-11T06:56:27.276Z,0.50
2023-02-11T06:58:57.212Z,1.02
2023-02-11T07:01:26.409Z,0.68
2023-02-11T07:03:55.068Z,0.30
2023-02-11T07:06:24.756Z,1.23
2023-02-11T07:08:53.067Z,0.40
2023-02-11T07:11:24.270Z,0.40
2023-02-11T07:13:52.806Z,0.50
2023-02-11T07:16:22.580Z,0.73
2023-02-11T07:18:51.235Z,0.40
2023-02-11T07:21:20.695Z,0.30
2023-02-11T07:23:49.608Z,0.55
2023-02-11T07:26:18.850Z,0.50
2023-02-11T07:28:47.260Z,0.30
2023-02-11T07:31:16.657Z,0.93
2023-02-11T07:33:46.759Z,0.80
2023-02-11T07:36:16.114Z,0.45
2023-02-11T07:38:44.865Z,0.77
2023-02-11T07:41:14.075Z,0.88
2023-02-11T07:43:42.851Z,1.05
2023-02-11T07:46:12.364Z,0.43
2023-02-11T07:48:40.761Z,0.88
2023-02-11T07:51:11.789Z,0.22
2023-02-11T07:53:40.122Z,0.68
2023-02-11T07:56:09.094Z,0.55
2023-02-11T07:58:37.691Z,0.65
2023-02-11T08:01:07.253Z,0.57
2023-02-11T08:03:36.365Z,0.70
2023-02-11T08:06:05.539Z,0.95
2023-02-11T08:08:35.139Z,0.55
2023-02-11T08:11:07.547Z,1.00
2023-02-11T08:13:35.853Z,0.98
2023-02-11T08:16:04.417Z,1.08
2023-02-11T08:18:33.005Z,0.30
2023-02-11T08:21:05.693Z,0.57
2023-02-11T08:23:35.477Z,1.13
2023-02-11T08:26:04.190Z,0.40
2023-02-11T08:28:32.672Z,1.23
2023-02-11T08:31:06.290Z,0.75
2023-02-11T08:33:34.859Z,0.45
2023-02-11T08:36:03.803Z,0.73
2023-02-11T08:38:32.037Z,1.10
2023-02-11T08:41:02.842Z,1.15
2023-02-11T08:43:31.090Z,1.35
2023-02-11T08:46:01.872Z,1.02
2023-02-11T08:48:30.456Z,2.15
2023-02-11T08:50:59.165Z,1.02
2023-02-11T08:53:27.526Z,1.90
2023-02-11T08:55:56.987Z,0.88
2023-02-11T08:58:26.618Z,1.00
2023-02-11T09:00:55.049Z,1.35
2023-02-11T09:03:23.353Z,1.25
2023-02-11T09:05:53.178Z,1.23
2023-02-11T09:08:22.102Z,2.03
2023-02-11T09:10:50.638Z,1.52
2023-02-11T09:13:19.162Z,1.48
2023-02-11T09:15:48.810Z,1.83
2023-02-11T16:01:09.902Z,2.45
2023-02-11T16:03:38.411Z,2.50
2023-02-11T16:06:21.715Z,2.92
2023-02-11T16:09:03.514Z,4.05
2023-02-11T16:11:32.769Z,3.45
2023-02-11T16:14:03.691Z,2.25
2023-02-11T16:16:35.827Z,2.55
2023-02-11T16:19:06.256Z,3.20
2023-02-11T16:21:38.970Z,3.10
2023-02-11T16:24:08.487Z,1.92
2023-02-11T16:26:39.183Z,1.90
2023-02-11T16:29:09.000Z,2.50
2023-02-11T16:31:40.056Z,2.90
2023-02-11T16:34:14.960Z,3.13
2023-02-11T16:39:11.546Z,3.13
2023-02-11T16:41:39.910Z,2.58
2023-02-11T16:44:08.440Z,3.75
2023-02-11T16:46:38.438Z,2.65
2023-02-11T16:49:11.235Z,2.60
2023-02-11T16:51:41.006Z,2.47
2023-02-11T16:54:09.443Z,3.42
2023-02-11T16:56:37.706Z,3.13
2023-02-11T16:59:06.431Z,3.13
2023-02-11T17:01:35.347Z,2.75
2023-02-11T17:04:03.649Z,2.55
2023-02-11T17:06:34.556Z,2.50
2023-02-11T17:09:02.990Z,2.90
2023-02-11T17:11:31.279Z,2.35
2023-02-11T17:13:59.739Z,3.78
2023-02-11T17:16:29.961Z,3.05
2023-02-11T17:18:58.349Z,3.17
2023-02-11T17:21:29.821Z,3.03
2023-02-11T17:23:59.721Z,3.72
2023-02-11T17:26:28.012Z,3.25
2023-02-11T17:28:56.327Z,2.88
2023-02-11T17:31:24.827Z,3.63
2023-02-11T17:33:53.171Z,3.88
2023-02-11T17:36:21.434Z,2.95
2023-02-11T17:38:51.164Z,3.35
2023-02-11T17:41:20.892Z,2.55
2023-02-11T17:43:49.347Z,2.33
2023-02-11T17:46:17.869Z,3.58
2023-02-11T17:48:46.240Z,2.92
2023-02-11T17:51:23.458Z,3.22
2023-02-11T17:53:51.787Z,3.60
2023-02-11T17:56:21.663Z,3.95
2023-02-11T17:58:49.927Z,4.20
2023-02-11T18:01:18.269Z,3.13
2023-02-11T18:03:46.605Z,3.13
2023-02-11T18:06:14.924Z,1.48
2023-02-11T18:08:43.233Z,2.70
2023-02-11T18:11:11.970Z,4.30
2023-02-11T18:13:41.579Z,3.05
2023-02-11T18:16:15.540Z,2.30
2023-02-11T18:18:44.156Z,3.70
2023-02-11T18:21:14.777Z,3.90
2023-02-11T18:23:43.361Z,3.33
2023-02-11T18:26:12.771Z,2.88
2023-02-11T18:28:45.696Z,4.07
2023-02-11T18:31:15.008Z,2.65
2023-02-11T18:33:43.701Z,4.13
2023-02-11T18:36:14.016Z,2.40
2023-02-11T18:38:44.112Z,3.00
2023-02-11T18:41:12.594Z,3.45
2023-02-11T18:43:43.097Z,3.95
2023-02-11T18:46:16.397Z,2.55
2023-02-11T18:48:45.784Z,2.42
2023-02-11T18:51:15.902Z,2.55
2023-02-11T18:53:44.595Z,3.92
2023-02-11T18:56:14.022Z,2.63
2023-02-11T18:58:43.865Z,2.85
2023-02-11T19:01:13.448Z,4.25
2023-02-11T19:03:41.856Z,1.80
2023-02-11T19:06:15.037Z,3.15
2023-02-11T19:08:43.292Z,1.63
2023-02-11T19:11:11.756Z,3.05
2023-02-11T19:20:46.813Z,4.35
2023-02-11T19:23:15.091Z,2.42
2023-02-11T19:25:47.057Z,2.95
2023-02-11T19:28:15.502Z,2.72
2023-02-11T19:30:44.242Z,3.75
2023-02-11T19:33:12.545Z,3.50
2023-02-11T19:35:40.823Z,3.20
2023-02-11T19:38:20.360Z,2.95
2023-02-11T19:41:08.788Z,4.13
2023-02-11T19:43:37.328Z,2.75
2023-02-11T19:46:51.536Z,2.25
2023-02-11T19:49:23.258Z,2.55
2023-02-11T19:51:51.831Z,3.15
2023-02-11T19:54:22.093Z,3.65
2023-02-11T19:56:50.391Z,2.53
2023-02-11T19:59:18.638Z,3.08
2023-02-11T20:01:48.903Z,2.88
2023-02-11T20:04:17.693Z,3.08
2023-02-11T20:06:48.180Z,2.75
2023-02-11T20:09:16.525Z,2.53
2023-02-11T20:11:46.299Z,2.75
2023-02-11T20:14:15.776Z,4.00
2023-02-11T20:16:49.146Z,3.25
2023-02-11T20:19:19.024Z,3.38
2023-02-11T20:21:48.227Z,2.88
2023-02-11T20:24:17.002Z,3.95
2023-02-11T20:26:48.510Z,2.65
2023-02-11T20:29:17.247Z,2.83
2023-02-11T20:31:45.817Z,2.97
2023-02-11T20:34:14.333Z,2.67
2023-02-11T20:36:42.652Z,3.03
2023-02-11T20:39:17.152Z,3.33
2023-02-11T20:41:47.172Z,3.10
2023-02-11T20:44:15.744Z,3.38
2023-02-11T20:46:45.979Z,4.30
2023-02-11T20:49:15.588Z,3.03
2023-02-11T20:51:44.207Z,5.07
2023-02-11T20:54:13.858Z,3.78
2023-02-11T20:56:42.237Z,3.15
2023-02-11T20:59:13.892Z,3.45
2023-02-11T21:01:43.631Z,2.63
2023-02-11T21:04:13.200Z,3.03
2023-02-11T21:06:43.568Z,2.85
2023-02-11T21:09:13.264Z,2.58
2023-02-11T21:11:41.913Z,2.83
2023-02-11T21:14:12.008Z,2.30
2023-02-11T21:16:41.123Z,2.50
2023-02-11T21:19:09.443Z,3.35
2023-02-11T21:21:38.541Z,3.90
2023-02-11T21:24:07.176Z,2.22
2023-02-11T21:26:35.989Z,3.97
2023-02-11T21:29:04.468Z,3.08
2023-02-11T21:31:35.120Z,2.95
2023-02-11T21:34:03.533Z,2.90
2023-02-11T21:36:31.991Z,4.32
2023-02-11T21:39:01.798Z,4.82
2023-02-11T21:41:30.115Z,2.72
2023-02-11T21:43:58.487Z,2.20
2023-02-11T21:46:26.791Z,3.13
2023-02-11T21:48:56.421Z,2.03
2023-02-11T21:51:25.992Z,2.95
2023-02-11T21:53:55.131Z,2.38
2023-02-11T21:56:23.718Z,2.67
2023-02-11T21:58:53.786Z,3.17
2023-02-11T22:01:23.444Z,3.47
2023-02-11T22:03:51.796Z,3.72
2023-02-11T22:06:22.837Z,1.75
2023-02-11T22:08:51.606Z,3.30
2023-02-11T22:11:20.402Z,3.15
2023-02-11T22:13:48.777Z,2.20
2023-02-11T22:16:18.346Z,3.30
2023-02-11T22:18:46.942Z,3.20
2023-02-11T22:21:16.655Z,2.08
2023-02-11T22:23:46.457Z,2.97
2023-02-11T22:26:15.699Z,2.72
2023-02-11T22:28:44.175Z,2.38
2023-02-11T22:31:13.451Z,4.10
2023-02-11T22:33:42.091Z,3.20
2023-02-11T22:36:14.003Z,2.85
2023-02-11T22:38:42.258Z,3.55
2023-02-11T22:41:12.833Z,3.50
2023-02-11T22:43:41.283Z,2.35
2023-02-11T22:46:09.804Z,2.30
2023-02-11T22:48:38.083Z,3.17
2023-02-11T22:51:06.834Z,3.35
2023-02-11T22:53:35.409Z,2.65
2023-02-11T22:56:05.213Z,3.03
2023-02-11T22:58:35.502Z,3.30
2023-02-11T23:01:04.006Z,2.90
2023-02-11T23:03:32.537Z,2.88
2023-02-11T23:06:01.437Z,1.95
2023-02-11T23:08:30.638Z,3.13
2023-02-11T23:10:58.943Z,2.72
2023-02-11T23:13:27.250Z,4.65
2023-02-11T23:15:57.242Z,2.85
2023-02-11T23:18:25.672Z,3.50
2023-02-11T23:20:53.949Z,2.88
2023-02-11T23:23:22.220Z,3.20
2023-02-11T23:25:50.497Z,2.45
2023-02-11T23:28:18.824Z,4.20
2023-02-11T23:30:47.174Z,3.22
2023-02-11T23:33:16.748Z,4.30
2023-02-11T23:35:45.119Z,2.97
2023-02-11T23:38:13.373Z,3.42
2023-02-11T23:40:41.645Z,4.03
2023-02-11T23:43:10.184Z,3.17
2023-02-11T23:45:38.545Z,3.15
2023-02-11T23:48:06.846Z,3.85
2023-02-11T23:50:36.196Z,2.63
2023-02-11T23:53:05.818Z,3.28
2023-02-11T23:55:39.909Z,4.53
2023-02-11T23:58:08.212Z,4.00
